Extreme weather reports worldwide

High winds

Station
 
Location
 
Name
 
Wind
Knots
Gust
Knots
Vis
SM
Temp/Dew
C
Baro
inHg
METAR
 
KMWN 76 81 0.06 -27/-27 KMWN 182057Z 26076G81KT 1/16SM FZFG BLSN VV002 M27/M27 RMK PK WND 31091/15 SHSNE35 VRY LGT ICG SUN DMLY VSBL
SVD TVSA Kingstown, VC Argyle International Airport 60 6.21 27/22 29.94 TVSA 1812100Z 06019KT 9999 VCSH BKN018 BKN030 27/22 Q1014 NOSIG
ENDR 45 8/8 29.53 ENDR 182120Z AUTO 22045KT 08/08 Q1000
ENHE 40 2.17 8/7 29.41 ENHE 182120Z 24040KT 3500 -RA BKN006 08/07 Q0996 RERA W///S6
KN60 39 53 -16/-20 29.91 KN60 182052Z AUTO 32039G53KT M17/M20 A2991 RMK AO1 PK WND 31053/2049 SLP166 T11671200 51029

Station
 
Location
 
Name
 
Wind
Knots
Gust
Knots
Vis
SM
Temp/Dew
C
Baro
inHg
METAR
 
FBU ENFB Oslo, NO Oslo, Fornebu Airport 39 8/7 29.79 ENFB 182120Z AUTO 21039KT 9999NDV OVC013/// 08/07 Q1009 W///S5
ENSL NO Sleipner A Platform 39 8/6 30.09 ENSL 182120Z AUTO 24039KT //// BKN012/// 08/06 Q1019 W06/S4
K8D3 37 46 -5/-9 29.70 K8D3 182056Z AUTO 32037G46KT M05/M09 A2970 RMK AO1 PK WND 32050/2011 PRESRR SLP079 T10501094 53060
ENGC 37 6.21 8/6 29.85 ENGC 182120Z 22037KT 9999 BKN015 08/06 Q1011 W07/S5
BOO ENBO Bodø, NO Bodø Airport 36 6.21 7/5 29.29 ENBO 182120Z 23036KT 9999 VCSH FEW011 SCT030 07/05 Q0992
ENSE 36 9/7 29.79 ENSE 182120Z AUTO 22036KT 9999NDV OVC012/// 09/07 Q1009 W///S5
ENSF 36 9/6 29.79 ENSF 182120Z AUTO 22036KT 9999NDV OVC012/// 09/06 Q1009 W///S5
K08D 36 42 1.75 -19/-22 29.96 K08D 182135Z AUTO 32036G42KT 1 3/4SM HZ CLR M19/M22 A2996 RMK AO2
JMS KJMS Jamestown, US Jamestown Regional Airport 35 43 0.5 -12/-16 29.78 KJMS 182112Z AUTO 31035G43KT 1/2SM BLSN FEW007 BKN011 M13/M16 A2978 RMK AO2 PK WND 31043/2112 SNE06 P0000 T11281161
ENNE 35 7/6 29.32 ENNE 182120Z AUTO 22035KT 5000NDV BKN009/// BKN024/// BKN074/// 07/06 Q0993 W///S6
ENQR 35 8/7 29.76 ENQR 182120Z AUTO 22035KT 9999NDV OVC012/// 08/07 Q1008 W08/S5
ENUN 35 6/5 29.23 ENUN 182120Z AUTO 26035KT 9999NDV -SHRA BKN010/// OVC066/// 06/05 Q0990 W07/S6
USH SAWH Ushuahia, AR Malvinas Argentinas Airport 34 44 6.21 11/7 29.85 SAWH 182100Z 23034G44KT 9999 FEW038 BKN045 11/07 Q1011
CGR SBCG Campo Grande, BR Campo Grande Airport 34 45 4.97 25/19 29.91 SBCG 182134Z 05034G45KT 340V080 8000 1500E R24/0600 R06/2000 -TSRA SCT045 FEW050CB 25/19 Q1013
KGWR Gwinner, US Gwinner Roger Melroe Field 34 44 0.25 -10/-10 29.77 KGWR 182135Z AUTO 32034G44KT 1/4SM FZFG SCT002 BKN009 BKN016 M10/M10 A2977 RMK A01
CWQV 33 39 -18/-23 CWQV 182100Z AUTO 28033G39KT M19/M23 RMK AO1 PK WND 27044/2015 T11861230
K46D 33 40 0.25 -15/-17 29.86 K46D 182135Z AUTO 32033G40KT M1/4SM -SN OVC001 M15/M17 A2986 RMK AO2
MOT KMOT Minot, US Minot International Airport 33 43 0.5 -17/-21 29.96 KMOT 182140Z 29033G43KT 1/2SM BLSN VV009 M18/M22 A2996 RMK AO2 PK WND 30043/2139 T11781217
MIB KMIB Minot, US Minot Air Force Base 32 37 0.5 -19/-22 29.91 KMIB 182056Z 33032G37KT 1/2SM R12/1400V2000FT BLSN SCT008 M19/M23 A2991 RMK PK WND 34040/43 SLP170 60000 T11901228 52039 $
CWOE 32 -17/-21 CWOE 182100Z AUTO 00032KT M18/M21 RMK AO1 SLP294 T11781213 53003
ENHM 32 8/6 30.03 ENHM 182120Z AUTO 23032KT 9999NDV SCT042/// BKN057/// 08/06 Q1017 W08/S/
K06D 32 0.25 -18/-20 29.81 K06D 182135Z AUTO 32032KT 1/4SM -SN OVC009 M18/M20 A2981 RMK AO2
K2D5 32 45 0.75 -11/-13 29.80 K2D5 182135Z AUTO 32032G45KT 3/4SM -SN SCT005 BKN010 OVC014 M11/M13 A2980 RMK AO2
K7L2 32 38 10 -11/-16 29.93 K7L2 182135Z AUTO 32032G38KT 10SM SCT018 M11/M16 A2993 RMK AO2
KRUG Rugby, US Rugby Municipal Airport 32 40 0.25 -19/-21 29.88 KRUG 182135Z AUTO 31032G40KT 1/4SM -SN BKN014 M19/M21 A2988 RMK AO2
CWRA 31 42 4/3 CWRA 182100Z AUTO 14031G42KT 04/04 RMK AO1 5PAST HR 6063 PK WND 15045/2032 SLP935 P0014 T00410039 50065
K5H4 31 42 0.25 -18/-20 29.90 K5H4 182135Z AUTO 31031G42KT 1/4SM -SN SCT003 SCT008 OVC013 M18/M20 A2990 RMK AO2
BBB KBBB Benson, US Benson Municipal Airport 31 36 10 -3/-5 29.65 KBBB 182135Z AUTO 34031G36KT 10SM OVC013 M03/M05 A2965 RMK AO2
KD55 31 37 0.25 -15/-15 29.73 KD55 182135Z AUTO 31031G37KT M1/4SM -SN OVC001 M15/M15 A2973 RMK AO2
CWVU 30 36 -2/-7 CWVU 182100Z AUTO 28030G36KT M03/M07 RMK AO1 PK WND 28036/2051 SLP980 T10281071 52042
YYT CYYT St. John's, CA St. John's International Airport 30 48 1 3/3 29.42 CYYT 182100Z 17030G48KT 1SM R16/P6000FT/N +RA BR OVC004 03/03 A2942 RMK FG4NS4 /R13/ PRESFR SLP970
RVK ENRM Rørvik, NO Rørvik Airport, Ryum 30 41 4.97 7/7 29.56 ENRM 182120Z 23030G41KT 8000 RA BKN009 07/07 Q1001
KBAC 30 45 0.25 -13/-14 29.77 KBAC 182135Z AUTO 31030G45KT 1/4SM SN FZFG SCT002 SCT010 OVC015 M13/M14 A2977 RMK AO2
KGHW Glenwood, US Glenwood Municipal Airport 30 36 10 -5/-7 29.60 KGHW 182135Z AUTO 29030G36KT 10SM SCT013 M05/M07 A2960 RMK AO2
ULM KULM New Ulm, US New Ulm Municipal Airport 30 39 10 2/-2 29.59 KULM 182135Z AUTO 30030G39KT 10SM BKN018 OVC025 02/M02 A2959 RMK AO2
KXWA 29 4 -16/-21 30.05 KXWA 182108Z AUTO 32029KT 4SM BLSN FEW019 OVC027 M17/M21 A3005 RMK AO2 PK WND 32039/2055 T11671211
ABR KABR Aberdeen, US Aberdeen Regional Airport 29 40 10 -6/-11 29.82 KABR 182125Z AUTO 32029G40KT 10SM FEW023 M06/M11 A2982 RMK AO2 PK WND 32040/2125 T10611111
KMOX Morris, US Morris Municipal - Charlie Schmidt Airport 29 36 10 -6/-10 29.67 KMOX 182135Z AUTO 33029G36KT 10SM OVC013 M06/M10 A2967 RMK AO2
RAP KRAP Rapid City, US Rapid City Regional Airport 29 38 10 -1/-6 29.89 KRAP 182136Z 35029G38KT 10SM SCT027 SCT033 BKN048 M01/M07 A2989 RMK AO2 PK WND 34040/2122 T10111067
CZF PACZ Cape Romanzof, US Cape Romanzof LRRS Airport 29 34 0.25 -18/-20 29.90 PACZ 182137Z AUTO 06029G34KT 1/4SM -SN FZFG VV002 M18/M20 A2990 RMK AO2 PK WND 07036/2103 SLP145
BIS KBIS Bismarck, US Bismarck Municipal Airport 28 39 10 -12/-17 29.94 KBIS 182052Z 30028G39KT 10SM SCT022 M12/M17 A2994 RMK AO2 PK WND 31048/2021 SLP171 60000 T11221172 51042
AXN KAXN Alexandria, US Chandler Field 28 35 10 -3/-6 29.54 KAXN 182053Z AUTO 30028G35KT 10SM OVC012 M03/M06 A2954 RMK AO2 PK WND 30039/2007 SLP024 T10331061 53039
SYA PASY Shemya, US Eareckson Air Station 28 41 7 3/2 29.01 PASY 182057Z 06028G41KT 7SM BKN012 OVC020 03/02 A2901 RMK AO2A PK WND 06042/22 SLP825 WND DATA ESTMD 6//// T00340020 57014 PNO FZRANO $
BEY OLBA Beirut, LB Beirut Rafic Hariri International Airport 28 6.21 14/3 30.00 OLBA 182100Z 17028KT 9999 FEW027 14/03 Q1016 NOSIG
EHAK 28 6.21 8/4 30.32 EHAK 182125Z AUTO 22028KT 9999 NSC 08/04 Q1027